createdAt,value
2022-10-19T00:02:21.845Z,100.00
2022-10-19T00:05:24.770Z,100.00
2022-10-19T00:08:27.781Z,100.00
2022-10-19T00:11:31.762Z,100.00
2022-10-19T00:14:34.376Z,100.00
2022-10-19T00:17:37.286Z,100.00
2022-10-19T00:20:39.868Z,100.00
2022-10-19T00:23:44.012Z,100.00
2022-10-19T00:26:46.653Z,100.00
2022-10-19T00:29:49.521Z,100.00
2022-10-19T00:32:52.138Z,100.00
2022-10-19T00:35:55.002Z,100.00
2022-10-19T00:38:59.141Z,100.00
2022-10-19T00:42:02.074Z,100.00
2022-10-19T00:45:12.879Z,100.00
2022-10-19T00:48:25.752Z,100.00
2022-10-19T00:51:29.553Z,100.00
2022-10-19T00:54:33.790Z,100.00
2022-10-19T00:57:36.926Z,100.00
2022-10-19T01:00:39.867Z,100.00
2022-10-19T01:03:42.801Z,100.00
2022-10-19T01:06:45.888Z,100.00
2022-10-19T01:09:48.614Z,100.00
2022-10-19T01:13:00.293Z,100.00
2022-10-19T01:16:15.336Z,100.00
2022-10-19T01:19:59.571Z,100.00
2022-10-19T01:23:11.319Z,100.00
2022-10-19T01:26:22.986Z,100.00
2022-10-19T01:29:25.527Z,100.00
2022-10-19T01:32:51.718Z,100.00
2022-10-19T01:36:09.462Z,100.00
2022-10-19T01:39:20.873Z,100.00
2022-10-19T01:42:39.976Z,100.00
2022-10-19T01:45:50.709Z,100.00
2022-10-19T01:48:59.071Z,100.00
2022-10-19T01:52:09.355Z,100.00
2022-10-19T01:55:15.658Z,100.00
2022-10-19T01:58:28.061Z,100.00
2022-10-19T02:01:34.071Z,100.00
2022-10-19T02:04:38.453Z,100.00
2022-10-19T02:07:45.156Z,100.00
2022-10-19T02:10:48.990Z,100.00
2022-10-19T02:14:00.158Z,100.00
2022-10-19T02:17:08.109Z,100.00
2022-10-19T02:20:11.275Z,100.00
2022-10-19T02:23:18.871Z,100.00
2022-10-19T02:26:22.036Z,100.00
2022-10-19T02:29:24.900Z,100.00
2022-10-19T02:32:28.194Z,100.00
2022-10-19T02:35:31.261Z,100.00
2022-10-19T02:38:33.956Z,100.00
2022-10-19T02:41:42.710Z,100.00
2022-10-19T02:44:57.307Z,100.00
2022-10-19T02:48:08.823Z,100.00
2022-10-19T02:51:28.578Z,100.00
2022-10-19T02:54:31.907Z,100.00
2022-10-19T02:57:34.714Z,100.00
2022-10-19T03:00:38.068Z,100.00
2022-10-19T03:03:40.682Z,100.00
2022-10-19T03:06:43.798Z,100.00
2022-10-19T03:09:46.504Z,100.00
2022-10-19T03:12:49.292Z,100.00
2022-10-19T03:15:52.418Z,100.00
2022-10-19T03:18:55.219Z,100.00
2022-10-19T03:21:57.898Z,100.00
2022-10-19T03:25:00.742Z,100.00
2022-10-19T03:28:03.355Z,100.00
2022-10-19T03:31:06.319Z,100.00
2022-10-19T03:34:08.884Z,100.00
2022-10-19T03:37:13.431Z,100.00
2022-10-19T03:40:19.361Z,100.00
2022-10-19T03:43:22.157Z,100.00
2022-10-19T03:46:24.991Z,100.00
2022-10-19T03:49:27.927Z,100.00
2022-10-19T03:52:30.625Z,100.00
2022-10-19T03:55:33.541Z,100.00
2022-10-19T03:58:38.168Z,100.00
2022-10-19T04:01:44.157Z,100.00
2022-10-19T04:04:47.138Z,100.00
2022-10-19T04:07:49.664Z,100.00
2022-10-19T04:10:53.043Z,100.00
2022-10-19T04:13:57.112Z,100.00
2022-10-19T04:17:03.397Z,100.00
2022-10-19T04:20:06.442Z,100.00
2022-10-19T04:23:10.987Z,100.00
2022-10-19T04:26:13.798Z,100.00
2022-10-19T04:29:19.157Z,100.00
2022-10-19T04:32:21.672Z,100.00
2022-10-19T04:35:24.539Z,100.00
2022-10-19T04:38:29.814Z,100.00
2022-10-19T04:41:33.378Z,100.00
2022-10-19T04:44:35.880Z,100.00
2022-10-19T04:47:38.782Z,100.00
2022-10-19T04:50:42.880Z,100.00
2022-10-19T04:53:59.536Z,100.00
2022-10-19T04:57:02.534Z,100.00
2022-10-19T05:00:06.343Z,100.00
2022-10-19T05:03:08.891Z,100.00
2022-10-19T05:06:12.659Z,100.00
2022-10-19T05:09:15.217Z,100.00
2022-10-19T05:12:18.152Z,100.00
2022-10-19T05:15:20.649Z,100.00
2022-10-19T05:18:23.613Z,100.00
2022-10-19T05:21:27.748Z,100.00
2022-10-19T05:24:32.563Z,100.00
2022-10-19T05:27:35.429Z,100.00
2022-10-19T05:30:43.349Z,100.00
2022-10-19T05:33:48.032Z,100.00
2022-10-19T05:36:50.904Z,100.00
2022-10-19T05:39:54.797Z,100.00
2022-10-19T05:42:57.594Z,100.00
2022-10-19T05:46:08.376Z,100.00
2022-10-19T05:49:13.254Z,100.00
2022-10-19T05:52:17.783Z,100.00
2022-10-19T05:55:20.636Z,100.00
2022-10-19T05:58:23.609Z,100.00
2022-10-19T06:01:27.533Z,100.00
2022-10-19T06:04:30.552Z,100.00
2022-10-19T06:07:33.331Z,98.04
2022-10-19T06:10:38.206Z,95.76
2022-10-19T06:13:41.770Z,93.57
2022-10-19T06:16:46.075Z,91.29
2022-10-19T06:19:48.893Z,90.53
2022-10-19T06:22:51.701Z,89.07
2022-10-19T06:25:54.311Z,87.35
2022-10-19T06:29:00.451Z,86.80
2022-10-19T06:32:03.317Z,84.82
2022-10-19T06:35:06.519Z,83.45
2022-10-19T06:38:10.034Z,82.27
2022-10-19T06:41:13.456Z,81.93
2022-10-19T06:44:16.003Z,80.21
2022-10-19T06:47:18.773Z,82.00
2022-10-19T06:50:21.451Z,79.03
2022-10-19T06:53:24.771Z,78.29
2022-10-19T06:56:27.860Z,78.38
2022-10-19T06:59:30.733Z,76.79
2022-10-19T07:02:33.473Z,76.43
2022-10-19T07:05:36.307Z,75.51
2022-10-19T07:08:40.249Z,73.88
2022-10-19T07:11:46.105Z,75.34
2022-10-19T07:14:49.051Z,75.17
2022-10-19T07:17:53.022Z,73.83
2022-10-19T07:20:57.869Z,73.69
2022-10-19T07:24:01.065Z,71.07
2022-10-19T07:27:03.942Z,70.57
2022-10-19T07:30:07.574Z,69.34
2022-10-19T07:33:10.163Z,68.54
2022-10-19T07:36:14.259Z,68.62
2022-10-19T07:39:17.248Z,68.68
2022-10-19T07:45:28.122Z,69.53
2022-10-19T07:48:31.031Z,71.80
2022-10-19T07:51:33.726Z,70.91
2022-10-19T07:54:36.486Z,71.13
2022-10-19T07:57:40.707Z,70.86
2022-10-19T08:00:44.890Z,69.19
2022-10-19T08:07:11.356Z,68.19
2022-10-19T08:10:15.131Z,66.92
2022-10-19T08:13:17.800Z,66.23
2022-10-19T08:16:28.636Z,65.26
2022-10-19T08:19:31.232Z,65.93
2022-10-19T08:22:34.531Z,66.73
2022-10-19T08:25:37.370Z,66.21
2022-10-19T08:28:40.439Z,66.26
2022-10-19T08:31:44.592Z,67.24
2022-10-19T08:34:47.385Z,67.15
2022-10-19T08:37:50.153Z,65.29
2022-10-19T08:41:24.799Z,65.52
2022-10-19T08:44:37.725Z,68.35
2022-10-19T08:47:58.188Z,64.92
2022-10-19T08:51:01.491Z,66.12
2022-10-19T08:54:12.230Z,63.87
2022-10-19T08:57:21.130Z,62.61
2022-10-19T09:00:50.303Z,63.50
2022-10-19T09:04:02.210Z,62.27
2022-10-19T09:07:20.443Z,63.02
2022-10-19T09:10:29.051Z,61.21
2022-10-19T09:13:41.633Z,61.80
2022-10-19T09:17:02.753Z,59.63
2022-10-19T09:20:19.149Z,61.49
2022-10-19T09:23:46.677Z,60.22
2022-10-19T09:26:54.479Z,60.36
2022-10-19T09:30:01.417Z,59.25
2022-10-19T09:33:06.086Z,58.27
2022-10-19T09:36:18.196Z,56.67
2022-10-19T09:39:29.565Z,54.83
2022-10-19T09:42:34.690Z,54.28
2022-10-19T09:45:46.169Z,53.30
2022-10-19T09:48:53.442Z,52.68
2022-10-19T09:51:56.320Z,53.33
2022-10-19T09:55:05.884Z,52.60
2022-10-19T09:58:15.122Z,52.43
2022-10-19T10:01:43.095Z,53.81
2022-10-19T10:04:54.743Z,53.87
2022-10-19T10:07:57.410Z,55.87
2022-10-19T10:11:14.604Z,54.37
2022-10-19T10:14:36.700Z,55.12
2022-10-19T10:17:39.535Z,55.41
2022-10-19T10:21:13.474Z,55.88
2022-10-19T10:24:19.178Z,56.99
2022-10-19T10:27:37.106Z,54.74
2022-10-19T10:30:40.178Z,56.25
2022-10-19T10:33:46.191Z,55.96
2022-10-19T10:36:53.724Z,55.76
2022-10-19T10:40:01.863Z,56.75
2022-10-19T10:43:19.059Z,57.04
2022-10-19T10:46:27.317Z,57.51
2022-10-19T10:49:35.395Z,58.27
2022-10-19T10:52:38.425Z,59.16
2022-10-19T10:55:55.353Z,60.35
2022-10-19T10:59:12.326Z,61.96
2022-10-19T11:02:20.811Z,59.44
2022-10-19T11:06:02.877Z,60.21
2022-10-19T11:09:28.672Z,59.31
2022-10-19T11:12:39.862Z,59.29
2022-10-19T11:16:11.223Z,57.85
2022-10-19T11:19:41.296Z,59.02
2022-10-19T11:22:49.720Z,59.37
2022-10-19T11:26:04.273Z,58.78
2022-10-19T11:29:25.638Z,59.11
2022-10-19T11:32:58.520Z,60.61
2022-10-19T11:36:13.105Z,60.19
2022-10-19T11:39:25.733Z,60.39
2022-10-19T11:42:40.246Z,60.02
2022-10-19T11:46:03.946Z,59.74
2022-10-19T11:49:18.876Z,60.54
2022-10-19T11:52:41.709Z,61.46
2022-10-19T11:56:02.343Z,62.51
2022-10-19T11:59:28.591Z,63.64
2022-10-19T12:03:05.333Z,63.13
2022-10-19T12:06:29.702Z,62.62
2022-10-19T12:09:48.128Z,62.50
2022-10-19T12:12:58.803Z,63.29
2022-10-19T12:16:03.621Z,64.86
2022-10-19T12:19:15.966Z,65.52
2022-10-19T12:22:29.940Z,62.82
2022-10-19T12:25:35.217Z,62.52
2022-10-19T12:28:41.870Z,62.66
2022-10-19T12:31:45.487Z,61.69
2022-10-19T12:35:04.661Z,60.40
2022-10-19T12:38:30.361Z,61.03
2022-10-19T12:41:52.148Z,61.68
2022-10-19T12:45:22.487Z,62.36
2022-10-19T12:48:25.400Z,63.76
2022-10-19T12:51:46.233Z,63.89
2022-10-19T12:54:48.799Z,65.54
2022-10-19T12:58:19.635Z,65.49
2022-10-19T13:01:42.158Z,64.38
2022-10-19T13:04:53.201Z,65.12
2022-10-19T13:07:56.188Z,65.56
2022-10-19T13:11:06.291Z,65.35
2022-10-19T13:14:47.919Z,66.08
2022-10-19T13:17:51.933Z,65.78
2022-10-19T13:20:54.940Z,65.33
2022-10-19T13:24:23.800Z,64.91
2022-10-19T13:27:27.318Z,64.56
2022-10-19T13:30:37.005Z,62.93
2022-10-19T13:33:46.556Z,61.69
2022-10-19T13:37:03.106Z,61.08
2022-10-19T13:40:23.630Z,62.28
2022-10-19T13:43:33.278Z,62.96
2022-10-19T13:47:12.401Z,64.33
2022-10-19T13:50:43.740Z,64.01
2022-10-19T13:54:16.532Z,65.70
2022-10-19T13:57:38.145Z,65.81
2022-10-19T14:00:59.637Z,66.68
2022-10-19T14:04:36.308Z,66.12
2022-10-19T14:07:49.975Z,66.43
2022-10-19T14:11:03.887Z,65.74
2022-10-19T14:14:09.130Z,66.15
2022-10-19T14:17:42.407Z,66.63
2022-10-19T14:20:57.901Z,66.54
2022-10-19T14:24:00.878Z,66.48
2022-10-19T14:27:06.967Z,67.50
2022-10-19T14:30:32.673Z,68.62
2022-10-19T14:33:46.327Z,68.92
2022-10-19T14:36:49.939Z,69.39
2022-10-19T14:40:26.449Z,69.73
2022-10-19T14:43:33.697Z,70.72
2022-10-19T14:46:36.330Z,70.79
2022-10-19T14:49:39.175Z,71.47
2022-10-19T14:52:41.917Z,72.16
2022-10-19T14:55:45.600Z,72.61
2022-10-19T14:58:56.737Z,75.19
2022-10-19T15:02:03.210Z,73.45
2022-10-19T15:05:14.539Z,73.23
2022-10-19T15:08:31.840Z,73.60
2022-10-19T15:11:40.431Z,73.06
2022-10-19T15:14:44.631Z,72.92
2022-10-19T15:17:56.653Z,73.85
2022-10-19T15:21:15.757Z,74.05
2022-10-19T15:24:27.386Z,74.13
2022-10-19T15:27:33.619Z,74.53
2022-10-19T15:30:36.749Z,74.89
2022-10-19T15:33:44.383Z,75.98
2022-10-19T15:36:59.758Z,76.21
2022-10-19T15:40:10.987Z,76.90
2022-10-19T15:43:34.756Z,77.84
2022-10-19T15:47:23.629Z,79.02
2022-10-19T15:50:38.678Z,79.84
2022-10-19T15:53:41.453Z,81.09
2022-10-19T15:56:46.607Z,82.33
2022-10-19T15:59:49.578Z,84.54
2022-10-19T16:02:52.171Z,87.65
2022-10-19T16:05:55.172Z,88.92
2022-10-19T16:08:58.831Z,89.74
2022-10-19T16:12:01.833Z,91.20
2022-10-19T16:15:04.847Z,92.09
2022-10-19T16:18:11.287Z,92.92
2022-10-19T16:21:15.523Z,94.20
2022-10-19T16:24:18.601Z,95.41
2022-10-19T16:27:21.337Z,96.50
2022-10-19T16:30:24.505Z,97.41
2022-10-19T16:33:28.564Z,98.62
2022-10-19T16:36:34.424Z,99.53
2022-10-19T16:39:37.237Z,100.00
2022-10-19T16:42:40.470Z,100.00
2022-10-19T16:45:44.270Z,100.00
2022-10-19T16:48:47.429Z,100.00
2022-10-19T16:51:54.700Z,100.00
2022-10-19T16:55:00.394Z,100.00
2022-10-19T16:58:03.247Z,100.00
2022-10-19T17:01:18.353Z,100.00
2022-10-19T17:04:21.234Z,100.00
2022-10-19T17:07:24.698Z,100.00
2022-10-19T17:10:31.255Z,100.00
2022-10-19T17:13:34.392Z,100.00
2022-10-19T17:16:38.732Z,100.00
2022-10-19T17:19:41.959Z,100.00
2022-10-19T17:22:44.934Z,100.00
2022-10-19T17:25:48.911Z,100.00
2022-10-19T17:28:55.653Z,100.00
2022-10-19T17:31:58.920Z,100.00
2022-10-19T17:35:01.798Z,100.00
2022-10-19T17:38:04.925Z,100.00
2022-10-19T17:41:11.153Z,100.00
2022-10-19T17:44:16.707Z,100.00
2022-10-19T17:47:19.723Z,100.00
2022-10-19T17:50:23.158Z,100.00
2022-10-19T17:53:26.659Z,100.00
2022-10-19T17:56:31.087Z,100.00
2022-10-19T17:59:46.592Z,100.00
2022-10-19T18:02:55.967Z,100.00
2022-10-19T18:06:34.776Z,100.00
2022-10-19T18:09:37.692Z,100.00
2022-10-19T18:12:40.891Z,100.00
2022-10-19T18:15:44.006Z,100.00
2022-10-19T18:18:50.090Z,100.00
2022-10-19T18:21:53.464Z,100.00
2022-10-19T18:24:56.699Z,100.00
2022-10-19T18:27:59.555Z,100.00
2022-10-19T18:31:11.833Z,100.00
2022-10-19T18:34:16.072Z,100.00
2022-10-19T18:37:19.413Z,96.48
2022-10-19T18:40:22.430Z,93.86
2022-10-19T18:43:25.505Z,91.06
2022-10-19T18:46:28.370Z,88.77
2022-10-19T18:49:32.146Z,87.46
2022-10-19T18:52:37.912Z,88.03
2022-10-19T18:55:42.013Z,88.33
2022-10-19T18:58:45.593Z,88.94
2022-10-19T19:01:48.839Z,88.60
2022-10-19T19:04:52.282Z,89.75
2022-10-19T19:07:56.041Z,91.34
2022-10-19T19:11:13.449Z,92.05
2022-10-19T19:14:21.091Z,92.68
2022-10-19T19:17:25.083Z,93.99
2022-10-19T19:20:32.834Z,94.99
2022-10-19T19:23:36.161Z,96.65
2022-10-19T19:26:42.071Z,95.48
2022-10-19T19:29:44.898Z,95.16
2022-10-19T19:32:48.027Z,95.87
2022-10-19T19:35:52.290Z,96.33
2022-10-19T19:38:57.239Z,97.70
2022-10-19T19:42:00.152Z,97.88
2022-10-19T19:45:08.308Z,97.81
2022-10-19T19:48:12.191Z,97.54
2022-10-19T19:51:21.223Z,98.60
2022-10-19T19:54:24.401Z,99.57
2022-10-19T19:57:28.095Z,99.36
2022-10-19T20:00:31.239Z,98.97
2022-10-19T20:03:34.333Z,100.00
2022-10-19T20:06:39.638Z,100.00
2022-10-19T20:09:43.107Z,100.00
2022-10-19T20:12:47.321Z,100.00
2022-10-19T20:15:50.398Z,100.00
2022-10-19T20:19:08.405Z,100.00
2022-10-19T20:22:13.117Z,100.00
2022-10-19T20:25:19.689Z,100.00
2022-10-19T20:28:27.555Z,100.00
2022-10-19T20:31:31.910Z,100.00
2022-10-19T20:34:36.049Z,100.00
2022-10-19T20:37:38.936Z,100.00
2022-10-19T20:40:42.763Z,100.00
2022-10-19T20:43:49.533Z,100.00
2022-10-19T20:46:54.077Z,100.00
2022-10-19T20:49:57.124Z,100.00
2022-10-19T20:53:00.384Z,100.00
2022-10-19T20:56:07.824Z,99.84
2022-10-19T20:59:14.734Z,96.17
2022-10-19T21:02:17.641Z,92.73
2022-10-19T21:05:20.708Z,88.70
2022-10-19T21:08:23.321Z,86.82
2022-10-19T21:11:31.694Z,86.60
2022-10-19T21:14:34.294Z,87.56
2022-10-19T21:17:37.183Z,86.13
2022-10-19T21:20:40.150Z,87.08
2022-10-19T21:23:45.392Z,89.07
2022-10-19T21:26:48.329Z,90.61
2022-10-19T21:29:51.388Z,91.76
2022-10-19T21:32:54.057Z,94.24
2022-10-19T21:35:59.923Z,95.41
2022-10-19T21:39:02.701Z,97.88
2022-10-19T21:42:06.307Z,98.18
2022-10-19T21:45:29.179Z,98.53
2022-10-19T21:48:33.998Z,97.17
2022-10-19T21:51:53.671Z,98.21
2022-10-19T21:54:56.610Z,98.82
2022-10-19T21:57:59.245Z,99.15
2022-10-19T22:01:07.534Z,99.45
2022-10-19T22:04:17.200Z,100.00
2022-10-19T22:07:19.776Z,100.00
2022-10-19T22:10:23.087Z,100.00
2022-10-19T22:13:25.799Z,100.00
2022-10-19T22:16:29.714Z,100.00
2022-10-19T22:19:32.302Z,100.00
2022-10-19T22:22:35.379Z,100.00
2022-10-19T22:25:38.201Z,100.00
2022-10-19T22:28:41.143Z,100.00
2022-10-19T22:31:44.563Z,100.00
2022-10-19T22:34:47.332Z,100.00
2022-10-19T22:37:49.929Z,100.00
2022-10-19T22:41:49.020Z,100.00
2022-10-19T22:45:10.232Z,100.00
2022-10-19T22:48:13.262Z,100.00
2022-10-19T22:51:15.924Z,100.00
2022-10-19T22:54:18.809Z,100.00
2022-10-19T22:57:21.481Z,100.00
2022-10-19T23:00:24.451Z,100.00
2022-10-19T23:03:27.202Z,100.00
2022-10-19T23:06:30.067Z,100.00
2022-10-19T23:09:32.979Z,100.00
2022-10-19T23:12:36.263Z,100.00
2022-10-19T23:15:43.068Z,100.00
2022-10-19T23:18:46.869Z,100.00
2022-10-19T23:21:49.502Z,100.00
2022-10-19T23:24:52.411Z,100.00
2022-10-19T23:27:55.142Z,100.00
2022-10-19T23:30:58.904Z,100.00
2022-10-19T23:34:01.637Z,100.00
2022-10-19T23:37:04.542Z,100.00
2022-10-19T23:40:07.727Z,100.00
2022-10-19T23:43:11.652Z,100.00
2022-10-19T23:46:14.753Z,100.00
2022-10-19T23:49:17.904Z,100.00
2022-10-19T23:52:20.499Z,100.00
2022-10-19T23:55:23.334Z,100.00
2022-10-19T23:58:26.308Z,100.00
